createdAt,value
2022-11-07T00:01:38.984Z,12.63
2022-11-07T00:04:24.636Z,11.68
2022-11-07T00:07:10.089Z,11.45
2022-11-07T00:09:55.596Z,12.35
2022-11-07T00:12:41.664Z,12.15
2022-11-07T00:15:27.005Z,11.80
2022-11-07T00:18:12.540Z,11.75
2022-11-07T00:21:06.310Z,11.82
2022-11-07T00:23:51.729Z,12.00
2022-11-07T00:26:37.490Z,13.73
2022-11-07T00:29:23.361Z,12.95
2022-11-07T00:32:08.711Z,11.02
2022-11-07T00:34:54.110Z,13.13
2022-11-07T00:37:39.611Z,12.15
2022-11-07T00:40:24.913Z,11.13
2022-11-07T00:43:10.432Z,11.55
2022-11-07T00:45:56.285Z,11.65
2022-11-07T00:48:42.169Z,11.35
2022-11-07T00:51:28.917Z,11.73
2022-11-07T00:54:14.379Z,12.52
2022-11-07T00:57:00.327Z,12.02
2022-11-07T00:59:45.897Z,11.27
2022-11-07T01:02:31.556Z,10.82
2022-11-07T01:05:17.385Z,10.95
2022-11-07T01:08:02.889Z,10.68
2022-11-07T01:10:48.366Z,11.25
2022-11-07T01:13:34.558Z,11.65
2022-11-07T01:16:20.121Z,11.77
2022-11-07T01:19:06.289Z,11.75
2022-11-07T01:21:52.013Z,11.35
2022-11-07T01:24:37.767Z,12.48
2022-11-07T01:27:23.457Z,12.38
2022-11-07T01:30:10.621Z,10.93
2022-11-07T01:32:55.837Z,10.23
2022-11-07T01:35:41.389Z,10.73
2022-11-07T01:38:28.961Z,11.02
2022-11-07T01:41:26.863Z,11.50
2022-11-07T01:44:12.223Z,11.40
2022-11-07T01:47:00.925Z,11.48
2022-11-07T01:49:46.506Z,10.20
2022-11-07T01:52:38.892Z,10.85
2022-11-07T01:55:32.209Z,10.98
2022-11-07T01:58:17.602Z,10.65
2022-11-07T02:01:04.434Z,9.57
2022-11-07T02:03:51.378Z,9.63
2022-11-07T02:06:49.154Z,11.02
2022-11-07T02:09:35.114Z,10.32
2022-11-07T02:12:23.388Z,11.38
2022-11-07T02:15:10.025Z,10.82
2022-11-07T02:17:57.387Z,10.32
2022-11-07T02:20:45.252Z,10.55
2022-11-07T02:23:47.575Z,10.65
2022-11-07T02:26:34.840Z,11.43
2022-11-07T02:29:21.718Z,11.45
2022-11-07T02:32:10.257Z,11.02
2022-11-07T02:35:01.914Z,10.25
2022-11-07T02:37:47.687Z,10.10
2022-11-07T02:40:34.029Z,9.73
2022-11-07T02:43:23.910Z,10.25
2022-11-07T02:46:12.052Z,9.43
2022-11-07T02:49:00.386Z,9.32
2022-11-07T02:51:45.948Z,9.43
2022-11-07T02:54:31.238Z,9.73
2022-11-07T02:57:16.562Z,10.52
2022-11-07T03:00:02.063Z,9.73
2022-11-07T03:02:47.718Z,8.88
2022-11-07T03:05:33.566Z,9.18
2022-11-07T03:08:18.885Z,9.43
2022-11-07T03:11:04.305Z,9.43
2022-11-07T03:13:50.763Z,9.70
2022-11-07T03:16:36.090Z,9.88
2022-11-07T03:19:21.618Z,10.40
2022-11-07T03:22:06.827Z,10.80
2022-11-07T03:24:52.705Z,10.82
2022-11-07T03:27:49.053Z,11.25
2022-11-07T03:30:34.679Z,11.50
2022-11-07T03:33:20.263Z,11.18
2022-11-07T03:36:06.535Z,12.68
2022-11-07T03:38:52.462Z,12.20
2022-11-07T03:41:38.646Z,11.85
2022-11-07T03:44:25.048Z,10.68
2022-11-07T03:47:11.726Z,10.50
2022-11-07T03:49:59.471Z,10.60
2022-11-07T03:52:45.654Z,11.15
2022-11-07T03:55:32.743Z,12.25
2022-11-07T03:58:19.257Z,10.45
2022-11-07T04:01:06.314Z,11.00
2022-11-07T04:03:56.112Z,11.98
2022-11-07T04:06:44.593Z,13.15
2022-11-07T04:09:30.447Z,13.13
2022-11-07T04:12:34.731Z,12.40
2022-11-07T04:15:42.289Z,12.30
2022-11-07T04:18:27.794Z,12.90
2022-11-07T04:21:13.146Z,14.10
2022-11-07T04:24:01.096Z,12.18
2022-11-07T04:27:05.663Z,10.77
2022-11-07T04:29:51.194Z,12.32
2022-11-07T04:32:37.493Z,12.13
2022-11-07T04:35:27.513Z,11.90
2022-11-07T04:38:12.997Z,11.25
2022-11-07T04:40:59.241Z,11.77
2022-11-07T04:43:44.816Z,13.05
2022-11-07T04:46:30.248Z,12.02
2022-11-07T04:49:17.172Z,12.90
2022-11-07T04:52:03.994Z,12.40
2022-11-07T04:54:49.390Z,12.30
2022-11-07T04:57:36.095Z,12.13
2022-11-07T05:00:21.657Z,12.38
2022-11-07T05:03:06.942Z,12.88
2022-11-07T05:05:52.783Z,13.93
2022-11-07T05:08:41.048Z,15.02
2022-11-07T05:11:26.343Z,14.05
2022-11-07T05:14:12.251Z,13.57
2022-11-07T05:16:58.368Z,15.65
2022-11-07T05:19:43.870Z,15.45
2022-11-07T05:22:51.164Z,16.45
2022-11-07T05:25:46.728Z,16.75
2022-11-07T05:28:38.824Z,17.35
2022-11-07T05:31:28.629Z,18.98
2022-11-07T05:34:24.223Z,17.65
2022-11-07T05:37:10.488Z,17.73
2022-11-07T05:39:55.986Z,18.63
2022-11-07T05:42:41.543Z,18.60
2022-11-07T05:45:28.273Z,16.88
2022-11-07T05:48:14.186Z,16.38
2022-11-07T05:50:59.838Z,17.88
2022-11-07T05:53:45.246Z,17.58
2022-11-07T05:56:31.180Z,17.42
2022-11-07T05:59:16.712Z,17.67
2022-11-07T06:02:02.174Z,19.48
2022-11-07T06:04:47.962Z,18.35
2022-11-07T06:07:35.689Z,18.55
2022-11-07T06:10:22.754Z,17.80
2022-11-07T06:13:12.317Z,15.95
2022-11-07T06:15:58.445Z,16.95
2022-11-07T06:18:44.056Z,19.40
2022-11-07T06:21:30.354Z,18.58
2022-11-07T06:24:16.463Z,18.35
2022-11-07T06:27:02.317Z,17.80
2022-11-07T06:29:48.307Z,17.20
2022-11-07T06:32:34.931Z,19.67
2022-11-07T06:35:20.798Z,19.30
2022-11-07T06:38:11.974Z,20.77
2022-11-07T06:41:05.430Z,20.13
2022-11-07T06:43:51.910Z,20.52
2022-11-07T06:46:37.406Z,19.70
2022-11-07T06:49:22.731Z,20.73
2022-11-07T06:52:08.492Z,18.77
2022-11-07T06:54:56.612Z,20.95
2022-11-07T06:57:42.740Z,20.00
2022-11-07T07:00:29.750Z,19.60
2022-11-07T07:03:18.383Z,18.65
2022-11-07T07:06:13.080Z,18.50
2022-11-07T07:08:58.908Z,18.52
2022-11-07T07:11:45.635Z,18.02
2022-11-07T07:14:31.289Z,20.42
2022-11-07T07:17:16.988Z,18.77
2022-11-07T07:20:04.683Z,19.45
2022-11-07T07:22:57.841Z,17.38
2022-11-07T07:25:46.980Z,17.10
2022-11-07T07:28:33.571Z,18.88
2022-11-07T07:31:24.555Z,17.83
2022-11-07T07:34:10.277Z,17.48
2022-11-07T07:36:56.000Z,17.38
2022-11-07T07:39:41.579Z,18.33
2022-11-07T07:42:26.930Z,18.77
2022-11-07T07:45:15.351Z,17.00
2022-11-07T07:48:02.516Z,18.38
2022-11-07T07:50:49.771Z,18.27
2022-11-07T07:53:35.468Z,17.58
2022-11-07T07:56:21.004Z,17.95
2022-11-07T07:59:06.602Z,18.55
2022-11-07T08:01:56.633Z,17.50
2022-11-07T08:04:42.771Z,16.88
2022-11-07T08:07:28.267Z,17.88
2022-11-07T08:10:39.542Z,17.85
2022-11-07T08:13:21.762Z,18.15
2022-11-07T08:16:07.963Z,17.20
2022-11-07T08:18:53.399Z,19.52
2022-11-07T08:21:38.723Z,18.58
2022-11-07T08:24:24.266Z,16.60
2022-11-07T08:27:09.842Z,18.17
2022-11-07T08:29:55.384Z,18.77
2022-11-07T08:32:40.745Z,18.25
2022-11-07T08:35:28.141Z,17.63
2022-11-07T08:38:13.473Z,19.10
2022-11-07T08:40:59.670Z,22.90
2022-11-07T08:43:45.233Z,17.88
2022-11-07T08:46:30.655Z,18.90
2022-11-07T08:49:16.216Z,19.38
2022-11-07T08:52:01.955Z,18.70
2022-11-07T08:54:47.535Z,19.35
2022-11-07T08:57:32.862Z,18.30
2022-11-07T09:00:18.727Z,17.42
2022-11-07T09:06:14.709Z,18.77
2022-11-07T09:09:00.238Z,19.50
2022-11-07T09:11:45.504Z,21.15
2022-11-07T09:14:31.343Z,16.92
2022-11-07T09:17:17.942Z,19.50
2022-11-07T09:20:03.446Z,17.33
2022-11-07T09:22:49.123Z,17.88
2022-11-07T09:25:34.631Z,17.55
2022-11-07T09:28:20.198Z,20.52
2022-11-07T09:31:06.153Z,20.67
2022-11-07T09:33:51.816Z,20.40
2022-11-07T09:36:37.331Z,19.10
2022-11-07T09:39:22.672Z,19.70
2022-11-07T09:42:17.297Z,21.20
2022-11-07T09:45:03.804Z,19.30
2022-11-07T09:48:03.642Z,22.67
2022-11-07T09:50:51.667Z,25.02
2022-11-07T09:53:45.735Z,23.60
2022-11-07T09:56:32.612Z,23.15
2022-11-07T09:59:27.720Z,24.33
2022-11-07T10:02:18.928Z,23.20
2022-11-07T10:05:05.755Z,21.30
2022-11-07T10:08:08.004Z,21.00
2022-11-07T10:11:00.026Z,23.55
2022-11-07T10:13:58.375Z,23.40
2022-11-07T10:16:53.062Z,25.77
2022-11-07T10:20:01.758Z,26.25
2022-11-07T10:23:03.105Z,22.40
2022-11-07T10:26:06.581Z,26.20
2022-11-07T10:29:22.305Z,23.48
2022-11-07T10:32:25.249Z,21.38
2022-11-07T10:35:26.319Z,24.02
2022-11-07T10:38:26.494Z,25.30
2022-11-07T10:41:22.820Z,22.67
2022-11-07T10:47:17.107Z,21.92
2022-11-07T10:50:19.135Z,23.90
2022-11-07T10:53:09.821Z,23.27
2022-11-07T10:55:56.183Z,21.48
2022-11-07T10:58:45.813Z,22.52
2022-11-07T11:01:31.524Z,22.17
2022-11-07T11:04:30.155Z,23.25
2022-11-07T11:07:16.273Z,22.08
2022-11-07T11:10:04.572Z,22.40
2022-11-07T11:12:49.965Z,21.27
2022-11-07T11:18:32.180Z,20.98
2022-11-07T11:21:18.446Z,21.15
2022-11-07T11:24:14.696Z,20.65
2022-11-07T11:27:05.300Z,21.42
2022-11-07T11:30:14.156Z,21.27
2022-11-07T11:33:06.563Z,21.02
2022-11-07T11:35:57.233Z,19.15
2022-11-07T11:38:46.291Z,20.70
2022-11-07T11:41:35.433Z,20.00
2022-11-07T11:44:35.349Z,22.10
2022-11-07T11:47:30.350Z,21.02
2022-11-07T11:50:30.344Z,21.33
2022-11-07T11:53:21.182Z,21.58
2022-11-07T11:56:06.630Z,19.95
2022-11-07T11:59:04.909Z,19.38
2022-11-07T12:02:10.378Z,21.05
2022-11-07T12:05:20.546Z,21.55
2022-11-07T12:08:41.085Z,18.77
2022-11-07T12:11:42.884Z,20.20
2022-11-07T12:14:57.027Z,20.40
2022-11-07T12:17:56.285Z,21.27
2022-11-07T12:21:12.813Z,22.17
2022-11-07T12:24:05.490Z,20.80
2022-11-07T12:27:26.747Z,24.25
2022-11-07T12:30:55.722Z,24.55
2022-11-07T12:34:00.129Z,25.05
2022-11-07T12:37:11.299Z,24.80
2022-11-07T12:40:35.895Z,24.60
2022-11-07T12:43:45.389Z,24.38
2022-11-07T12:46:43.296Z,23.80
2022-11-07T12:49:46.148Z,25.35
2022-11-07T12:52:47.648Z,25.35
2022-11-07T12:55:46.749Z,24.23
2022-11-07T12:58:34.987Z,24.35
2022-11-07T13:01:30.081Z,26.20
2022-11-07T13:04:23.812Z,25.15
2022-11-07T13:07:40.391Z,25.48
2022-11-07T13:10:36.239Z,25.70
2022-11-07T13:13:41.131Z,24.20
2022-11-07T13:16:33.695Z,22.52
2022-11-07T13:19:29.334Z,25.15
2022-11-07T13:22:44.529Z,24.35
2022-11-07T13:25:31.793Z,23.13
2022-11-07T13:28:58.592Z,25.30
2022-11-07T13:31:46.671Z,25.55
2022-11-07T13:35:00.006Z,27.67
2022-11-07T13:37:48.155Z,29.05
2022-11-07T13:40:36.690Z,28.63
2022-11-07T13:43:26.267Z,30.75
2022-11-07T13:46:26.185Z,31.25
2022-11-07T13:49:19.234Z,33.28
2022-11-07T13:52:11.709Z,34.72
2022-11-07T13:55:11.701Z,31.55
2022-11-07T13:58:06.278Z,33.95
2022-11-07T14:00:52.368Z,34.78
2022-11-07T14:03:39.119Z,33.38
2022-11-07T14:06:27.671Z,28.98
2022-11-07T14:09:19.818Z,29.08
2022-11-07T14:12:07.122Z,27.67
2022-11-07T14:14:56.141Z,28.88
2022-11-07T14:17:45.902Z,28.70
2022-11-07T14:20:32.532Z,29.10
2022-11-07T14:23:26.939Z,25.00
2022-11-07T14:26:21.010Z,28.38
2022-11-07T14:29:07.002Z,24.98
2022-11-07T14:32:02.337Z,25.63
2022-11-07T14:34:50.947Z,23.83
2022-11-07T14:37:49.664Z,26.00
2022-11-07T14:40:39.509Z,26.00
2022-11-07T14:43:28.243Z,24.23
2022-11-07T14:46:23.265Z,24.15
2022-11-07T14:49:26.263Z,23.98
2022-11-07T14:52:47.762Z,26.15
2022-11-07T14:55:44.910Z,25.25
2022-11-07T14:58:31.421Z,23.85
2022-11-07T15:01:28.051Z,20.83
2022-11-07T15:04:37.690Z,19.85
2022-11-07T15:07:31.385Z,17.80
2022-11-07T15:10:34.799Z,19.05
2022-11-07T15:13:27.077Z,19.08
2022-11-07T15:16:18.334Z,19.52
2022-11-07T15:19:07.492Z,20.98
2022-11-07T15:22:04.022Z,24.73
2022-11-07T15:24:50.462Z,24.60
2022-11-07T15:27:40.510Z,26.33
2022-11-07T15:30:36.004Z,23.65
2022-11-07T15:33:26.285Z,23.88
2022-11-07T15:36:21.053Z,25.00
2022-11-07T15:39:10.112Z,27.80
2022-11-07T15:41:57.609Z,30.20
2022-11-07T15:44:45.042Z,27.35
2022-11-07T15:47:33.348Z,32.22
2022-11-07T15:50:24.755Z,42.92
2022-11-07T15:53:20.919Z,54.20
2022-11-07T15:56:08.571Z,47.08
2022-11-07T15:58:55.394Z,34.88
2022-11-07T16:01:41.397Z,34.00
2022-11-07T16:04:28.182Z,27.30
2022-11-07T16:07:18.016Z,23.20
2022-11-07T16:10:16.110Z,20.65
2022-11-07T16:13:05.013Z,20.98
2022-11-07T16:16:00.312Z,27.00
2022-11-07T16:18:51.333Z,32.95
2022-11-07T16:21:37.230Z,26.35
2022-11-07T16:24:23.252Z,27.40
2022-11-07T16:27:15.890Z,35.97
2022-11-07T16:30:01.826Z,27.17
2022-11-07T16:32:48.439Z,26.17
2022-11-07T16:35:34.550Z,22.65
2022-11-07T16:38:23.091Z,21.75
2022-11-07T16:41:09.644Z,22.98
2022-11-07T16:43:55.595Z,22.08
2022-11-07T16:46:42.010Z,21.58
2022-11-07T16:49:31.575Z,20.85
2022-11-07T16:52:18.709Z,20.77
2022-11-07T16:55:04.836Z,22.83
2022-11-07T16:57:51.392Z,23.30
2022-11-07T17:00:37.537Z,23.73
2022-11-07T17:03:23.761Z,23.17
2022-11-07T17:06:31.966Z,21.13
2022-11-07T17:09:20.979Z,20.58
2022-11-07T17:12:25.813Z,21.10
2022-11-07T17:15:12.940Z,19.58
2022-11-07T17:18:04.580Z,20.40
2022-11-07T17:23:39.546Z,20.50
2022-11-07T17:26:34.586Z,19.63
2022-11-07T17:29:20.547Z,19.65
2022-11-07T17:32:06.428Z,18.77
2022-11-07T17:35:10.958Z,20.10
2022-11-07T17:37:59.775Z,18.15
2022-11-07T17:40:46.223Z,19.42
2022-11-07T17:43:32.019Z,21.50
2022-11-07T17:46:30.275Z,20.90
2022-11-07T17:49:18.248Z,21.05
2022-11-07T17:52:04.248Z,21.23
2022-11-07T17:54:50.752Z,21.48
2022-11-07T17:57:38.248Z,22.15
2022-11-07T18:00:27.190Z,23.23
2022-11-07T18:03:13.455Z,23.30
2022-11-07T18:05:59.240Z,22.05
2022-11-07T18:08:52.227Z,24.08
2022-11-07T18:11:42.356Z,31.85
2022-11-07T18:14:28.595Z,49.45
2022-11-07T18:17:14.958Z,45.20
2022-11-07T18:20:04.527Z,42.42
2022-11-07T18:22:50.227Z,35.92
2022-11-07T18:25:37.634Z,30.70
2022-11-07T18:28:28.943Z,28.58
2022-11-07T18:31:20.124Z,28.58
2022-11-07T18:34:09.823Z,26.83
2022-11-07T18:36:58.167Z,25.10
2022-11-07T18:39:44.097Z,26.25
2022-11-07T18:42:31.682Z,26.80
2022-11-07T18:45:18.391Z,25.23
2022-11-07T18:48:05.223Z,24.23
2022-11-07T18:50:51.950Z,25.00
2022-11-07T18:53:38.913Z,23.52
2022-11-07T18:56:24.796Z,24.30
2022-11-07T18:59:11.036Z,22.70
2022-11-07T19:01:57.901Z,26.30
2022-11-07T19:04:44.682Z,30.20
2022-11-07T19:07:30.294Z,27.23
2022-11-07T19:10:17.248Z,26.65
2022-11-07T19:13:07.840Z,28.33
2022-11-07T19:15:55.354Z,26.80
2022-11-07T19:18:46.625Z,29.15
2022-11-07T19:21:37.360Z,27.92
2022-11-07T19:24:25.016Z,27.13
2022-11-07T19:27:11.519Z,31.23
2022-11-07T19:29:59.520Z,34.22
2022-11-07T19:32:47.939Z,33.70
2022-11-07T19:35:38.698Z,38.92
2022-11-07T19:38:24.582Z,38.58
2022-11-07T19:41:10.926Z,37.90
2022-11-07T19:43:59.448Z,35.10
2022-11-07T19:46:46.036Z,37.35
2022-11-07T19:49:31.838Z,32.75
2022-11-07T19:52:18.149Z,30.60
2022-11-07T19:55:05.467Z,30.00
2022-11-07T19:57:51.520Z,27.48
2022-11-07T20:00:37.027Z,28.80
2022-11-07T20:03:23.068Z,28.50
2022-11-07T20:06:14.195Z,26.98
2022-11-07T20:09:00.932Z,25.38
2022-11-07T20:11:49.296Z,27.17
2022-11-07T20:14:35.149Z,23.63
2022-11-07T20:17:20.532Z,23.90
2022-11-07T20:20:13.303Z,23.58
2022-11-07T20:23:00.705Z,25.20
2022-11-07T20:25:46.900Z,23.88
2022-11-07T20:28:32.775Z,21.35
2022-11-07T20:31:23.325Z,19.80
2022-11-07T20:34:15.475Z,20.80
2022-11-07T20:37:04.412Z,20.90
2022-11-07T20:39:51.688Z,20.33
2022-11-07T20:42:37.522Z,20.10
2022-11-07T20:45:23.790Z,17.75
2022-11-07T20:48:11.140Z,18.48
2022-11-07T20:50:57.625Z,18.73
2022-11-07T20:53:49.839Z,19.05
2022-11-07T20:56:35.749Z,19.23
2022-11-07T20:59:21.580Z,17.90
2022-11-07T21:02:13.548Z,19.52
2022-11-07T21:08:05.597Z,20.15
2022-11-07T21:10:53.073Z,18.52
2022-11-07T21:13:40.231Z,19.25
2022-11-07T21:16:26.721Z,19.38
2022-11-07T21:19:15.964Z,18.40
2022-11-07T21:22:01.660Z,18.05
2022-11-07T21:24:47.127Z,17.67
2022-11-07T21:27:36.373Z,15.85
2022-11-07T21:30:22.075Z,14.35
2022-11-07T21:33:09.042Z,12.88
2022-11-07T21:35:55.040Z,11.23
2022-11-07T21:38:40.772Z,11.52
2022-11-07T21:41:26.686Z,11.85
2022-11-07T21:44:12.783Z,10.02
2022-11-07T21:46:58.320Z,10.88
2022-11-07T21:49:43.731Z,10.05
2022-11-07T21:52:29.025Z,9.32
2022-11-07T21:55:14.628Z,10.50
2022-11-07T21:57:59.989Z,14.82
2022-11-07T22:00:47.656Z,18.63
2022-11-07T22:04:03.599Z,29.05
2022-11-07T22:06:43.064Z,21.58
2022-11-07T22:09:29.144Z,20.25
2022-11-07T22:12:14.711Z,18.30
2022-11-07T22:15:00.536Z,14.40
2022-11-07T22:17:46.272Z,12.55
2022-11-07T22:20:31.626Z,11.38
2022-11-07T22:23:17.633Z,10.82
2022-11-07T22:26:14.580Z,9.63
2022-11-07T22:29:00.345Z,8.68
2022-11-07T22:31:45.734Z,8.55
2022-11-07T22:34:31.504Z,8.13
2022-11-07T22:37:17.101Z,9.30
2022-11-07T22:40:02.703Z,7.55
2022-11-07T22:42:48.014Z,8.40
2022-11-07T22:45:37.724Z,8.82
2022-11-07T22:48:23.264Z,9.55
2022-11-07T22:51:18.009Z,9.80
2022-11-07T22:54:10.048Z,10.10
2022-11-07T22:56:55.447Z,9.88
2022-11-07T22:59:40.712Z,9.20
2022-11-07T23:02:26.422Z,8.85
2022-11-07T23:05:12.508Z,9.38
2022-11-07T23:07:57.585Z,8.18
2022-11-07T23:10:43.417Z,8.77
2022-11-07T23:13:30.017Z,8.07
2022-11-07T23:16:27.457Z,8.48
2022-11-07T23:19:17.805Z,8.65
2022-11-07T23:22:03.461Z,7.93
2022-11-07T23:24:50.830Z,8.07
2022-11-07T23:27:36.381Z,7.55
2022-11-07T23:30:21.899Z,7.15
2022-11-07T23:33:07.213Z,7.43
2022-11-07T23:35:52.714Z,7.47
2022-11-07T23:38:38.168Z,7.47
2022-11-07T23:41:23.671Z,8.48
2022-11-07T23:44:10.171Z,7.07
2022-11-07T23:47:14.191Z,8.13
2022-11-07T23:50:18.096Z,7.03
2022-11-07T23:53:23.378Z,8.23
2022-11-07T23:56:09.411Z,7.10
2022-11-07T23:59:13.966Z,8.07
